createdAt,value
2023-01-29T00:00:23.922Z,4.64
2023-01-29T00:02:53.557Z,4.64
2023-01-29T00:05:27.923Z,4.68
2023-01-29T00:07:57.172Z,4.68
2023-01-29T00:10:28.336Z,4.66
2023-01-29T00:12:56.828Z,4.65
2023-01-29T00:15:26.927Z,4.66
2023-01-29T00:17:55.639Z,4.65
2023-01-29T00:20:24.185Z,4.65
2023-01-29T00:22:52.435Z,4.64
2023-01-29T00:25:20.707Z,4.65
2023-01-29T00:27:49.027Z,4.65
2023-01-29T00:30:20.197Z,4.66
2023-01-29T00:32:50.473Z,4.68
2023-01-29T00:35:19.239Z,4.68
2023-01-29T00:37:47.666Z,4.68
2023-01-29T00:40:16.437Z,4.72
2023-01-29T00:43:03.871Z,4.71
2023-01-29T00:45:33.095Z,4.73
2023-01-29T00:48:03.382Z,4.72
2023-01-29T00:50:33.535Z,4.74
2023-01-29T00:53:01.990Z,4.74
2023-01-29T00:55:30.424Z,4.73
2023-01-29T00:57:59.955Z,4.72
2023-01-29T01:00:29.568Z,4.71
2023-01-29T01:03:06.193Z,4.72
2023-01-29T01:05:37.218Z,4.74
2023-01-29T01:08:27.270Z,4.79
2023-01-29T01:11:02.808Z,4.76
2023-01-29T01:13:32.914Z,4.72
2023-01-29T01:16:02.368Z,4.70
2023-01-29T01:18:32.357Z,4.70
2023-01-29T01:21:02.248Z,4.70
2023-01-29T01:23:30.603Z,4.72
2023-01-29T01:25:59.434Z,4.70
2023-01-29T01:28:28.454Z,4.66
2023-01-29T01:30:57.138Z,4.62
2023-01-29T01:33:27.048Z,4.61
2023-01-29T01:35:56.696Z,4.62
2023-01-29T01:38:27.963Z,4.60
2023-01-29T01:40:56.890Z,4.60
2023-01-29T01:43:26.729Z,4.62
2023-01-29T01:45:55.419Z,4.63
2023-01-29T01:48:28.344Z,4.69
2023-01-29T01:51:03.655Z,4.69
2023-01-29T01:53:39.416Z,4.70
2023-01-29T01:56:14.868Z,4.66
2023-01-29T01:58:50.771Z,4.73
2023-01-29T02:01:28.001Z,4.68
2023-01-29T02:04:20.469Z,4.65
2023-01-29T02:07:07.130Z,4.62
2023-01-29T02:09:43.948Z,4.59
2023-01-29T02:12:17.753Z,4.62
2023-01-29T02:14:49.615Z,4.56
2023-01-29T02:17:21.141Z,4.57
2023-01-29T02:19:56.226Z,4.56
2023-01-29T02:22:55.564Z,4.54
2023-01-29T02:26:03.039Z,4.52
2023-01-29T02:28:41.527Z,4.52
2023-01-29T02:31:16.507Z,4.51
2023-01-29T02:33:57.593Z,4.48
2023-01-29T02:36:36.888Z,4.48
2023-01-29T02:39:17.491Z,4.50
2023-01-29T02:41:52.774Z,4.51
2023-01-29T02:44:35.605Z,4.51
2023-01-29T02:47:11.203Z,4.49
2023-01-29T02:49:49.533Z,4.49
2023-01-29T02:52:24.229Z,4.51
2023-01-29T02:54:57.724Z,4.53
2023-01-29T02:57:30.485Z,4.51
2023-01-29T03:00:07.452Z,4.53
2023-01-29T03:02:42.168Z,4.48
2023-01-29T03:05:23.441Z,4.44
2023-01-29T03:07:58.987Z,4.43
2023-01-29T03:10:33.469Z,4.38
2023-01-29T03:13:08.157Z,4.39
2023-01-29T03:15:47.170Z,4.38
2023-01-29T03:18:20.112Z,4.36
2023-01-29T03:20:53.479Z,4.33
2023-01-29T03:23:39.506Z,4.30
2023-01-29T03:26:28.874Z,4.29
2023-01-29T03:29:17.693Z,4.27
2023-01-29T03:32:07.881Z,4.26
2023-01-29T03:34:44.240Z,4.21
2023-01-29T03:37:20.395Z,4.24
2023-01-29T03:39:50.393Z,4.20
2023-01-29T03:42:26.988Z,4.23
2023-01-29T03:45:02.108Z,4.23
2023-01-29T03:47:45.211Z,4.25
2023-01-29T03:50:31.701Z,4.27
2023-01-29T03:53:08.510Z,4.28
2023-01-29T03:55:43.763Z,4.33
2023-01-29T03:58:25.127Z,4.30
2023-01-29T04:00:58.261Z,4.27
2023-01-29T04:03:34.992Z,4.23
2023-01-29T04:06:11.105Z,4.16
2023-01-29T04:08:47.617Z,4.16
2023-01-29T04:11:22.029Z,4.16
2023-01-29T04:13:53.323Z,4.16
2023-01-29T04:16:26.961Z,4.16
2023-01-29T04:18:57.477Z,4.10
2023-01-29T04:21:27.689Z,4.14
2023-01-29T04:23:56.322Z,4.13
2023-01-29T04:26:42.260Z,4.15
2023-01-29T04:29:26.638Z,4.11
2023-01-29T04:32:08.741Z,4.07
2023-01-29T04:34:53.174Z,4.07
2023-01-29T04:37:32.630Z,4.06
2023-01-29T04:40:12.869Z,3.98
2023-01-29T04:42:50.821Z,3.98
2023-01-29T04:45:28.352Z,3.98
2023-01-29T04:48:10.209Z,3.95
2023-01-29T04:50:45.699Z,3.91
2023-01-29T04:53:19.847Z,3.91
2023-01-29T04:55:54.951Z,3.87
2023-01-29T04:58:32.069Z,3.89
2023-01-29T05:01:03.709Z,3.90
2023-01-29T05:03:36.183Z,3.90
2023-01-29T05:06:11.731Z,3.95
2023-01-29T05:08:44.413Z,3.99
2023-01-29T05:11:14.721Z,3.94
2023-01-29T05:13:44.955Z,3.97
2023-01-29T05:16:19.287Z,3.97
2023-01-29T05:18:49.305Z,3.91
2023-01-29T05:21:23.517Z,3.93
2023-01-29T05:24:14.532Z,3.95
2023-01-29T05:27:01.793Z,3.93
2023-01-29T05:29:30.640Z,3.97
2023-01-29T05:32:00.140Z,4.03
2023-01-29T05:34:34.678Z,4.04
2023-01-29T05:37:08.600Z,4.07
2023-01-29T05:39:36.897Z,4.14
2023-01-29T05:42:05.769Z,4.17
2023-01-29T05:44:34.352Z,4.21
2023-01-29T05:47:04.300Z,4.23
2023-01-29T05:49:32.984Z,4.31
2023-01-29T05:52:02.804Z,4.29
2023-01-29T05:54:32.904Z,4.37
2023-01-29T05:57:02.378Z,4.35
2023-01-29T05:59:31.758Z,4.36
2023-01-29T06:02:00.434Z,4.38
2023-01-29T06:04:30.266Z,4.36
2023-01-29T06:06:59.001Z,4.36
2023-01-29T06:09:28.003Z,4.37
2023-01-29T06:11:58.069Z,4.39
2023-01-29T06:14:26.515Z,4.36
2023-01-29T06:17:00.686Z,4.37
2023-01-29T06:19:30.291Z,4.35
2023-01-29T06:21:58.926Z,4.34
2023-01-29T06:24:28.651Z,4.34
2023-01-29T06:26:58.835Z,4.34
2023-01-29T06:29:27.479Z,4.39
2023-01-29T06:31:56.216Z,4.38
2023-01-29T06:34:24.912Z,4.38
2023-01-29T06:36:53.462Z,4.39
2023-01-29T06:39:22.933Z,4.38
2023-01-29T06:41:51.447Z,4.38
2023-01-29T06:44:23.727Z,4.46
2023-01-29T06:46:52.421Z,4.40
2023-01-29T06:49:20.946Z,4.36
2023-01-29T06:51:49.492Z,4.38
2023-01-29T06:54:18.179Z,4.39
2023-01-29T06:56:47.065Z,4.41
2023-01-29T06:59:16.325Z,4.41
2023-01-29T07:01:46.554Z,4.43
2023-01-29T07:04:15.013Z,4.42
2023-01-29T07:06:45.410Z,4.41
2023-01-29T07:09:14.923Z,4.43
2023-01-29T07:11:43.604Z,4.41
2023-01-29T07:14:13.176Z,4.43
2023-01-29T07:16:41.638Z,4.44
2023-01-29T07:19:12.376Z,4.45
2023-01-29T07:21:41.457Z,4.46
2023-01-29T07:24:10.913Z,4.46
2023-01-29T07:26:39.573Z,4.52
2023-01-29T07:29:09.268Z,4.52
2023-01-29T07:31:43.902Z,4.51
2023-01-29T07:34:13.962Z,4.51
2023-01-29T07:36:42.525Z,4.53
2023-01-29T07:39:11.253Z,4.58
2023-01-29T07:41:39.904Z,4.56
2023-01-29T07:44:08.375Z,4.57
2023-01-29T07:46:36.971Z,4.60
2023-01-29T07:49:05.492Z,4.62
2023-01-29T07:51:35.875Z,4.63
2023-01-29T07:54:06.669Z,4.66
2023-01-29T07:56:36.252Z,4.66
2023-01-29T07:59:04.608Z,4.68
2023-01-29T08:01:36.260Z,4.71
2023-01-29T08:04:05.088Z,4.74
2023-01-29T08:06:35.404Z,4.74
2023-01-29T08:09:04.041Z,4.72
2023-01-29T08:11:32.693Z,4.76
2023-01-29T08:14:04.584Z,4.80
2023-01-29T08:16:35.279Z,4.78
2023-01-29T08:19:04.204Z,4.81
2023-01-29T08:21:32.609Z,4.82
2023-01-29T08:24:02.522Z,4.88
2023-01-29T08:26:32.568Z,4.90
2023-01-29T08:29:02.178Z,4.87
2023-01-29T08:31:30.965Z,4.91
2023-01-29T08:33:59.944Z,4.97
2023-01-29T08:36:28.622Z,4.94
2023-01-29T08:38:57.339Z,4.94
2023-01-29T08:41:29.559Z,5.00
2023-01-29T08:43:58.224Z,4.99
2023-01-29T08:46:26.901Z,5.04
2023-01-29T08:48:55.596Z,5.05
2023-01-29T08:51:26.593Z,5.07
2023-01-29T08:53:55.004Z,5.07
2023-01-29T08:56:23.404Z,5.10
2023-01-29T08:58:53.508Z,5.12
2023-01-29T09:01:22.086Z,5.14
2023-01-29T09:03:50.981Z,5.18
2023-01-29T09:06:19.387Z,5.19
2023-01-29T09:08:48.498Z,5.22
2023-01-29T09:11:17.152Z,5.24
2023-01-29T09:13:45.961Z,5.25
2023-01-29T09:16:16.182Z,5.27
2023-01-29T09:18:44.680Z,5.27
2023-01-29T09:21:13.023Z,5.28
2023-01-29T09:23:46.718Z,5.30
2023-01-29T09:26:15.224Z,5.34
2023-01-29T09:28:43.527Z,5.37
2023-01-29T09:31:12.228Z,5.39
2023-01-29T09:33:43.760Z,5.39
2023-01-29T09:36:12.384Z,5.37
2023-01-29T09:38:40.880Z,5.38
2023-01-29T09:41:23.855Z,5.43
2023-01-29T09:43:57.059Z,5.41
2023-01-29T09:46:35.515Z,5.40
2023-01-29T09:49:15.082Z,5.38
2023-01-29T09:51:49.135Z,5.39
2023-01-29T09:54:23.377Z,5.43
2023-01-29T09:56:56.423Z,5.45
2023-01-29T09:59:28.129Z,5.48
2023-01-29T10:02:05.943Z,5.46
2023-01-29T10:04:56.033Z,5.45
2023-01-29T10:07:48.670Z,5.45
2023-01-29T10:10:30.841Z,5.46
2023-01-29T10:13:08.862Z,5.53
2023-01-29T10:15:50.681Z,5.51
2023-01-29T10:18:46.622Z,5.53
2023-01-29T10:21:30.094Z,5.58
2023-01-29T10:24:12.123Z,5.56
2023-01-29T10:26:42.122Z,5.56
2023-01-29T10:29:19.764Z,5.59
2023-01-29T10:31:52.883Z,5.60
2023-01-29T10:34:29.989Z,5.63
2023-01-29T10:37:00.299Z,5.65
2023-01-29T10:39:32.124Z,5.64
2023-01-29T10:42:16.489Z,5.68
2023-01-29T10:44:58.302Z,5.78
2023-01-29T10:48:04.516Z,5.82
2023-01-29T10:50:46.716Z,5.83
2023-01-29T10:53:29.036Z,5.86
2023-01-29T10:56:20.998Z,5.91
2023-01-29T10:59:01.585Z,5.91
2023-01-29T11:01:31.604Z,5.95
2023-01-29T11:04:03.336Z,5.99
2023-01-29T11:06:34.667Z,5.99
2023-01-29T11:09:11.489Z,6.01
2023-01-29T11:11:47.847Z,5.99
2023-01-29T11:14:20.858Z,6.02
2023-01-29T11:16:52.806Z,6.02
2023-01-29T11:19:39.381Z,6.03
2023-01-29T11:22:16.810Z,6.05
2023-01-29T11:24:47.645Z,6.09
2023-01-29T11:27:22.510Z,6.11
2023-01-29T11:29:52.254Z,6.14
2023-01-29T11:32:28.168Z,6.13
2023-01-29T11:35:02.406Z,6.19
2023-01-29T11:37:38.586Z,6.22
2023-01-29T11:40:40.907Z,6.27
2023-01-29T11:43:22.190Z,6.33
2023-01-29T11:45:53.466Z,6.39
2023-01-29T11:48:24.775Z,6.44
2023-01-29T11:50:55.242Z,6.51
2023-01-29T11:53:34.115Z,6.58
2023-01-29T11:56:07.557Z,6.57
2023-01-29T11:58:45.455Z,6.67
2023-01-29T12:01:18.351Z,6.72
2023-01-29T12:03:54.090Z,6.85
2023-01-29T12:06:25.531Z,6.90
2023-01-29T12:08:59.258Z,6.94
2023-01-29T12:11:35.127Z,7.02
2023-01-29T12:14:06.525Z,7.03
2023-01-29T12:16:42.215Z,7.07
2023-01-29T12:19:17.666Z,7.18
2023-01-29T12:21:52.590Z,7.25
2023-01-29T12:24:35.906Z,7.30
2023-01-29T12:27:14.240Z,7.34
2023-01-29T12:29:48.759Z,7.38
2023-01-29T12:32:31.263Z,7.52
2023-01-29T12:35:06.225Z,7.64
2023-01-29T12:37:43.306Z,7.70
2023-01-29T12:40:16.499Z,7.79
2023-01-29T12:42:51.779Z,7.81
2023-01-29T12:45:22.464Z,7.85
2023-01-29T12:47:56.475Z,7.92
2023-01-29T12:50:30.274Z,7.99
2023-01-29T12:53:02.458Z,8.04
2023-01-29T12:55:38.331Z,8.06
2023-01-29T12:58:17.042Z,8.16
2023-01-29T13:00:55.880Z,8.17
2023-01-29T13:03:28.862Z,8.18
2023-01-29T13:05:59.415Z,8.23
2023-01-29T13:08:32.764Z,8.33
2023-01-29T13:11:06.094Z,8.27
2023-01-29T13:13:45.261Z,8.35
2023-01-29T13:16:22.478Z,8.47
2023-01-29T13:18:57.358Z,8.63
2023-01-29T13:21:33.370Z,8.82
2023-01-29T13:24:06.307Z,8.89
2023-01-29T13:26:43.080Z,8.98
2023-01-29T13:29:26.868Z,9.05
2023-01-29T13:31:57.187Z,9.15
2023-01-29T13:34:35.298Z,9.29
2023-01-29T13:37:13.432Z,9.47
2023-01-29T13:39:53.709Z,9.36
2023-01-29T13:42:24.353Z,9.26
2023-01-29T13:44:56.488Z,9.14
2023-01-29T13:47:28.324Z,9.07
2023-01-29T13:50:00.440Z,9.10
2023-01-29T13:52:40.082Z,9.07
2023-01-29T13:55:22.448Z,9.11
2023-01-29T13:57:56.889Z,9.16
2023-01-29T14:00:53.345Z,9.31
2023-01-29T14:04:06.785Z,9.38
2023-01-29T14:06:55.122Z,9.36
2023-01-29T14:10:05.825Z,9.21
2023-01-29T14:12:52.853Z,9.18
2023-01-29T14:15:33.911Z,9.28
2023-01-29T14:18:16.023Z,9.37
2023-01-29T14:20:57.858Z,9.38
2023-01-29T14:23:42.536Z,9.43
2023-01-29T14:26:30.395Z,9.39
2023-01-29T14:29:06.023Z,9.39
2023-01-29T14:31:43.816Z,9.62
2023-01-29T14:34:24.373Z,9.84
2023-01-29T14:36:57.788Z,10.12
2023-01-29T14:39:34.876Z,10.13
2023-01-29T14:42:14.801Z,10.01
2023-01-29T14:45:01.113Z,9.81
2023-01-29T14:48:08.411Z,9.75
2023-01-29T14:50:53.698Z,9.60
2023-01-29T14:53:29.539Z,9.49
2023-01-29T14:56:02.658Z,9.41
2023-01-29T14:58:39.291Z,9.35
2023-01-29T15:01:21.638Z,9.28
2023-01-29T15:03:53.959Z,9.26
2023-01-29T15:06:30.853Z,9.23
2023-01-29T15:09:13.562Z,9.28
2023-01-29T15:11:51.554Z,9.25
2023-01-29T15:14:30.551Z,9.26
2023-01-29T15:17:19.662Z,9.27
2023-01-29T15:19:50.759Z,9.35
2023-01-29T15:22:20.652Z,9.39
2023-01-29T15:25:07.690Z,9.42
2023-01-29T15:27:36.906Z,9.44
2023-01-29T15:30:09.391Z,9.42
2023-01-29T15:32:45.887Z,9.46
2023-01-29T15:35:28.495Z,9.45
2023-01-29T15:38:02.957Z,9.46
2023-01-29T15:40:35.350Z,9.50
2023-01-29T15:43:21.862Z,9.50
2023-01-29T15:45:52.648Z,9.48
2023-01-29T15:48:30.531Z,9.48
2023-01-29T15:51:05.183Z,9.46
2023-01-29T15:53:37.851Z,9.44
2023-01-29T15:56:13.751Z,9.43
2023-01-29T15:58:44.129Z,9.42
2023-01-29T16:01:12.803Z,9.40
2023-01-29T16:03:41.920Z,9.41
2023-01-29T16:06:13.123Z,9.48
2023-01-29T16:08:43.894Z,9.45
2023-01-29T16:11:14.455Z,9.45
2023-01-29T16:13:44.573Z,9.42
2023-01-29T16:16:25.806Z,9.42
2023-01-29T16:19:00.785Z,9.47
2023-01-29T16:21:35.705Z,9.45
2023-01-29T16:24:10.184Z,9.46
2023-01-29T16:26:44.595Z,9.42
2023-01-29T16:29:15.195Z,9.39
2023-01-29T16:31:46.104Z,9.43
2023-01-29T16:34:26.959Z,9.42
2023-01-29T16:36:57.694Z,9.38
2023-01-29T16:39:29.476Z,9.39
2023-01-29T16:42:22.807Z,9.38
2023-01-29T16:44:54.870Z,9.36
2023-01-29T16:47:30.005Z,9.34
2023-01-29T16:50:00.930Z,9.32
2023-01-29T16:52:32.070Z,9.32
2023-01-29T16:55:17.036Z,9.32
2023-01-29T16:57:52.138Z,9.29
2023-01-29T17:00:25.672Z,9.31
2023-01-29T17:02:58.196Z,9.29
2023-01-29T17:05:30.075Z,9.25
2023-01-29T17:07:59.771Z,9.29
2023-01-29T17:10:30.997Z,9.29
2023-01-29T17:13:05.246Z,9.27
2023-01-29T17:15:44.688Z,9.28
2023-01-29T17:18:19.948Z,9.28
2023-01-29T17:20:48.899Z,9.27
2023-01-29T17:23:17.545Z,9.32
2023-01-29T17:25:47.209Z,9.31
2023-01-29T17:28:19.296Z,9.27
2023-01-29T17:31:00.210Z,9.28
2023-01-29T17:33:33.787Z,9.29
2023-01-29T17:36:02.245Z,9.21
2023-01-29T17:38:31.247Z,9.29
2023-01-29T17:41:07.291Z,9.20
2023-01-29T17:43:37.576Z,9.15
2023-01-29T17:46:06.553Z,9.16
2023-01-29T17:48:35.191Z,9.19
2023-01-29T17:51:05.454Z,9.20
2023-01-29T17:53:45.585Z,9.23
2023-01-29T17:56:18.953Z,9.29
2023-01-29T17:58:49.369Z,9.32
2023-01-29T18:01:17.807Z,9.29
2023-01-29T18:03:46.389Z,9.26
2023-01-29T18:06:27.399Z,9.27
2023-01-29T18:08:56.643Z,9.31
2023-01-29T18:11:25.063Z,9.31
2023-01-29T18:13:55.268Z,9.31
2023-01-29T18:16:24.548Z,9.25
2023-01-29T18:18:54.832Z,9.30
2023-01-29T18:21:23.444Z,9.34
2023-01-29T18:23:52.121Z,9.28
2023-01-29T18:26:20.429Z,9.31
2023-01-29T18:28:48.915Z,9.26
2023-01-29T18:31:19.475Z,9.25
2023-01-29T18:33:48.319Z,9.24
2023-01-29T18:36:16.974Z,9.25
2023-01-29T18:38:46.755Z,9.29
2023-01-29T18:41:15.198Z,9.33
2023-01-29T18:43:44.509Z,9.33
2023-01-29T18:46:13.121Z,9.38
2023-01-29T18:48:43.729Z,9.37
2023-01-29T18:51:12.630Z,9.40
2023-01-29T18:53:41.367Z,9.41
2023-01-29T18:56:11.545Z,9.39
2023-01-29T18:58:41.303Z,9.36
2023-01-29T19:01:12.289Z,9.34
2023-01-29T19:03:43.283Z,9.33
2023-01-29T19:06:13.157Z,9.30
2023-01-29T19:08:43.536Z,9.29
2023-01-29T19:11:13.090Z,9.29
2023-01-29T19:13:43.797Z,9.26
2023-01-29T19:16:14.359Z,9.24
2023-01-29T19:18:44.376Z,9.26
2023-01-29T19:21:17.114Z,9.23
2023-01-29T19:23:46.255Z,9.15
2023-01-29T19:26:16.655Z,9.13
2023-01-29T19:28:45.104Z,9.09
2023-01-29T19:31:13.908Z,9.04
2023-01-29T19:33:45.260Z,9.03
2023-01-29T19:36:21.966Z,8.99
2023-01-29T19:38:51.468Z,8.97
2023-01-29T19:41:22.433Z,8.99
2023-01-29T19:43:54.222Z,9.01
2023-01-29T19:46:22.908Z,8.99
2023-01-29T19:48:55.017Z,8.99
2023-01-29T19:51:24.740Z,9.00
2023-01-29T19:53:53.894Z,9.00
2023-01-29T19:56:22.518Z,8.98
2023-01-29T19:58:54.857Z,8.97
2023-01-29T20:01:24.905Z,8.87
2023-01-29T20:03:56.653Z,8.73
2023-01-29T20:06:27.911Z,8.57
2023-01-29T20:08:57.513Z,8.42
2023-01-29T20:11:27.045Z,8.29
2023-01-29T20:13:55.780Z,8.25
2023-01-29T20:16:25.376Z,8.20
2023-01-29T20:18:55.527Z,8.15
2023-01-29T20:21:45.812Z,8.14
2023-01-29T20:24:16.079Z,8.13
2023-01-29T20:26:45.961Z,8.13
2023-01-29T20:29:15.897Z,8.11
2023-01-29T20:31:44.630Z,8.07
2023-01-29T20:34:14.790Z,8.04
2023-01-29T20:36:43.506Z,8.02
2023-01-29T20:39:13.470Z,7.97
2023-01-29T20:41:42.377Z,7.91
2023-01-29T20:44:11.045Z,7.87
2023-01-29T20:46:39.666Z,7.84
2023-01-29T20:49:08.327Z,7.83
2023-01-29T20:51:38.509Z,7.83
2023-01-29T20:54:08.256Z,7.84
2023-01-29T20:56:39.147Z,7.85
2023-01-29T20:59:14.050Z,7.87
2023-01-29T21:01:43.939Z,7.88
2023-01-29T21:04:13.905Z,7.91
2023-01-29T21:06:44.045Z,7.82
2023-01-29T21:09:12.825Z,7.82
2023-01-29T21:11:41.494Z,7.81
2023-01-29T21:14:10.094Z,7.74
2023-01-29T21:16:38.840Z,7.72
2023-01-29T21:19:07.503Z,7.69
2023-01-29T21:21:36.247Z,7.68
2023-01-29T21:24:09.119Z,7.67
2023-01-29T21:26:40.020Z,7.64
2023-01-29T21:29:11.807Z,7.64
2023-01-29T21:31:42.428Z,7.61
2023-01-29T21:34:12.540Z,7.53
2023-01-29T21:36:41.447Z,7.48
2023-01-29T21:39:21.363Z,7.38
2023-01-29T21:42:09.075Z,7.29
2023-01-29T21:44:39.598Z,7.16
2023-01-29T21:47:12.583Z,7.05
2023-01-29T21:49:45.010Z,6.94
2023-01-29T21:52:16.268Z,6.86
2023-01-29T21:54:49.234Z,6.79
2023-01-29T21:57:18.472Z,6.71
2023-01-29T21:59:50.592Z,6.62
2023-01-29T22:02:22.452Z,6.58
2023-01-29T22:04:52.827Z,6.51
2023-01-29T22:07:21.477Z,6.48
2023-01-29T22:09:51.721Z,6.42
2023-01-29T22:12:20.372Z,6.40
2023-01-29T22:14:49.364Z,6.39
2023-01-29T22:17:20.639Z,6.38
2023-01-29T22:19:49.439Z,6.35
2023-01-29T22:22:20.159Z,6.34
2023-01-29T22:24:48.795Z,6.35
2023-01-29T22:27:19.003Z,6.32
2023-01-29T22:29:47.540Z,6.26
2023-01-29T22:32:16.681Z,6.24
2023-01-29T22:34:45.606Z,6.23
2023-01-29T22:37:14.124Z,6.24
2023-01-29T22:39:42.699Z,6.24
2023-01-29T22:42:11.225Z,6.24
2023-01-29T22:44:41.881Z,6.20
2023-01-29T22:47:10.785Z,6.16
2023-01-29T22:49:40.461Z,6.15
2023-01-29T22:52:11.855Z,6.11
2023-01-29T22:54:41.271Z,6.05
2023-01-29T22:57:12.668Z,6.04
2023-01-29T22:59:43.182Z,6.01
2023-01-29T23:02:11.620Z,5.95
2023-01-29T23:04:40.498Z,5.89
2023-01-29T23:07:09.144Z,5.85
2023-01-29T23:09:37.756Z,5.82
2023-01-29T23:12:07.106Z,5.79
2023-01-29T23:14:35.767Z,5.75
2023-01-29T23:17:05.928Z,5.77
2023-01-29T23:19:34.829Z,5.79
2023-01-29T23:22:03.765Z,5.80
2023-01-29T23:24:32.425Z,5.84
2023-01-29T23:27:17.742Z,5.81
2023-01-29T23:29:48.723Z,5.88
2023-01-29T23:32:20.940Z,5.87
2023-01-29T23:34:49.795Z,5.90
2023-01-29T23:37:18.471Z,5.92
2023-01-29T23:39:46.871Z,5.95
2023-01-29T23:42:15.564Z,5.99
2023-01-29T23:44:44.371Z,6.06
2023-01-29T23:47:13.003Z,6.05
2023-01-29T23:49:43.553Z,6.13
2023-01-29T23:52:12.227Z,6.10
2023-01-29T23:54:40.852Z,6.07
2023-01-29T23:57:09.796Z,5.99
2023-01-29T23:59:38.747Z,5.89
